sensor_id;sensor_type;location;lat;lon;timestamp;temperature;humidity
11922;DHT22;6021;51.182;3.160;2022-09-09T00:04:33;15.20;99.90
11922;DHT22;6021;51.182;3.160;2022-09-09T00:07:23;15.10;99.90
11922;DHT22;6021;51.182;3.160;2022-09-09T00:10:00;15.30;99.90
11922;DHT22;6021;51.182;3.160;2022-09-09T00:15:47;15.10;99.90
11922;DHT22;6021;51.182;3.160;2022-09-09T00:18:21;15.20;99.90
11922;DHT22;6021;51.182;3.160;2022-09-09T00:23:44;15.20;99.90
11922;DHT22;6021;51.182;3.160;2022-09-09T00:28:41;15.20;99.90
11922;DHT22;6021;51.182;3.160;2022-09-09T00:31:12;15.20;99.90
11922;DHT22;6021;51.182;3.160;2022-09-09T00:33:42;15.10;99.90
11922;DHT22;6021;51.182;3.160;2022-09-09T00:36:18;15.10;99.90
11922;DHT22;6021;51.182;3.160;2022-09-09T00:38:55;15.00;99.90
11922;DHT22;6021;51.182;3.160;2022-09-09T00:41:57;15.00;99.90
11922;DHT22;6021;51.182;3.160;2022-09-09T00:44:32;15.10;99.90
11922;DHT22;6021;51.182;3.160;2022-09-09T00:50:09;15.20;99.90
11922;DHT22;6021;51.182;3.160;2022-09-09T00:58:13;15.00;99.90
11922;DHT22;6021;51.182;3.160;2022-09-09T01:00:50;15.10;99.90
11922;DHT22;6021;51.182;3.160;2022-09-09T01:03:33;15.10;99.90
11922;DHT22;6021;51.182;3.160;2022-09-09T01:06:27;15.30;99.90
11922;DHT22;6021;51.182;3.160;2022-09-09T01:09:17;15.20;99.90
11922;DHT22;6021;51.182;3.160;2022-09-09T01:12:01;15.30;99.90
11922;DHT22;6021;51.182;3.160;2022-09-09T01:14:49;15.20;99.90
11922;DHT22;6021;51.182;3.160;2022-09-09T01:17:26;15.30;99.90
11922;DHT22;6021;51.182;3.160;2022-09-09T01:22:35;15.30;99.90
11922;DHT22;6021;51.182;3.160;2022-09-09T01:27:56;15.30;99.90
11922;DHT22;6021;51.182;3.160;2022-09-09T01:30:26;15.20;99.90
11922;DHT22;6021;51.182;3.160;2022-09-09T01:32:57;15.20;99.90
11922;DHT22;6021;51.182;3.160;2022-09-09T01:37:58;15.30;99.90
11922;DHT22;6021;51.182;3.160;2022-09-09T01:40:27;15.10;99.90
11922;DHT22;6021;51.182;3.160;2022-09-09T01:42:57;15.10;99.90
11922;DHT22;6021;51.182;3.160;2022-09-09T01:45:29;15.00;99.90
11922;DHT22;6021;51.182;3.160;2022-09-09T01:47:57;15.10;99.90
11922;DHT22;6021;51.182;3.160;2022-09-09T01:50:26;15.10;99.90
11922;DHT22;6021;51.182;3.160;2022-09-09T01:52:57;15.30;99.90
11922;DHT22;6021;51.182;3.160;2022-09-09T01:55:40;15.10;99.90
11922;DHT22;6021;51.182;3.160;2022-09-09T02:03:38;15.20;99.90
11922;DHT22;6021;51.182;3.160;2022-09-09T02:06:26;15.00;99.90
11922;DHT22;6021;51.182;3.160;2022-09-09T02:08:59;14.90;99.90
11922;DHT22;6021;51.182;3.160;2022-09-09T02:11:28;15.10;99.90
11922;DHT22;6021;51.182;3.160;2022-09-09T02:14:06;15.00;99.90
11922;DHT22;6021;51.182;3.160;2022-09-09T02:16:54;15.10;99.90
11922;DHT22;6021;51.182;3.160;2022-09-09T02:21:56;15.10;99.90
11922;DHT22;6021;51.182;3.160;2022-09-09T02:24:26;15.10;99.90
11922;DHT22;6021;51.182;3.160;2022-09-09T02:26:56;15.10;99.90
11922;DHT22;6021;51.182;3.160;2022-09-09T02:29:31;15.20;99.90
11922;DHT22;6021;51.182;3.160;2022-09-09T02:32:06;15.10;99.90
11922;DHT22;6021;51.182;3.160;2022-09-09T02:34:38;15.00;99.90
11922;DHT22;6021;51.182;3.160;2022-09-09T02:37:08;15.20;99.90
11922;DHT22;6021;51.182;3.160;2022-09-09T02:39:37;15.20;99.90
11922;DHT22;6021;51.182;3.160;2022-09-09T02:42:05;15.10;99.90
11922;DHT22;6021;51.182;3.160;2022-09-09T02:44:35;15.10;99.90
11922;DHT22;6021;51.182;3.160;2022-09-09T02:47:09;15.00;99.90
11922;DHT22;6021;51.182;3.160;2022-09-09T02:52:46;15.10;99.90
11922;DHT22;6021;51.182;3.160;2022-09-09T02:55:23;15.20;99.90
11922;DHT22;6021;51.182;3.160;2022-09-09T02:57:49;15.20;99.90
11922;DHT22;6021;51.182;3.160;2022-09-09T03:00:26;15.20;99.90
11922;DHT22;6021;51.182;3.160;2022-09-09T03:02:56;15.40;99.90
11922;DHT22;6021;51.182;3.160;2022-09-09T03:05:25;15.50;99.90
11922;DHT22;6021;51.182;3.160;2022-09-09T03:07:55;15.50;99.90
11922;DHT22;6021;51.182;3.160;2022-09-09T03:10:25;15.50;99.90
11922;DHT22;6021;51.182;3.160;2022-09-09T03:12:56;15.50;99.90
11922;DHT22;6021;51.182;3.160;2022-09-09T03:15:25;15.40;99.90
11922;DHT22;6021;51.182;3.160;2022-09-09T03:17:55;15.50;99.90
11922;DHT22;6021;51.182;3.160;2022-09-09T03:20:25;15.40;99.90
11922;DHT22;6021;51.182;3.160;2022-09-09T03:22:55;15.40;99.90
11922;DHT22;6021;51.182;3.160;2022-09-09T03:25:24;15.30;99.90
11922;DHT22;6021;51.182;3.160;2022-09-09T03:27:53;15.30;99.90
11922;DHT22;6021;51.182;3.160;2022-09-09T03:30:26;15.50;99.90
11922;DHT22;6021;51.182;3.160;2022-09-09T03:32:55;15.30;99.90
11922;DHT22;6021;51.182;3.160;2022-09-09T03:35:24;15.30;99.90
11922;DHT22;6021;51.182;3.160;2022-09-09T03:37:52;15.40;99.90
11922;DHT22;6021;51.182;3.160;2022-09-09T03:40:22;15.40;99.90
11922;DHT22;6021;51.182;3.160;2022-09-09T03:42:50;15.20;99.90
11922;DHT22;6021;51.182;3.160;2022-09-09T03:45:19;15.10;99.90
11922;DHT22;6021;51.182;3.160;2022-09-09T03:47:47;15.10;99.90
11922;DHT22;6021;51.182;3.160;2022-09-09T03:50:16;15.00;99.90
11922;DHT22;6021;51.182;3.160;2022-09-09T03:52:45;15.00;99.90
11922;DHT22;6021;51.182;3.160;2022-09-09T03:55:15;14.90;99.90
11922;DHT22;6021;51.182;3.160;2022-09-09T03:57:43;15.00;99.90
11922;DHT22;6021;51.182;3.160;2022-09-09T04:00:13;15.10;99.90
11922;DHT22;6021;51.182;3.160;2022-09-09T04:02:41;15.10;99.90
11922;DHT22;6021;51.182;3.160;2022-09-09T04:05:10;15.00;99.90
11922;DHT22;6021;51.182;3.160;2022-09-09T04:07:39;14.90;99.90
11922;DHT22;6021;51.182;3.160;2022-09-09T04:10:08;14.90;99.90
11922;DHT22;6021;51.182;3.160;2022-09-09T04:12:36;14.90;99.90
11922;DHT22;6021;51.182;3.160;2022-09-09T04:15:05;14.90;99.90
11922;DHT22;6021;51.182;3.160;2022-09-09T04:17:35;14.90;99.90
11922;DHT22;6021;51.182;3.160;2022-09-09T04:20:03;15.20;99.90
11922;DHT22;6021;51.182;3.160;2022-09-09T04:22:32;14.80;99.90
11922;DHT22;6021;51.182;3.160;2022-09-09T04:25:01;14.70;99.90
11922;DHT22;6021;51.182;3.160;2022-09-09T04:27:29;14.80;99.90
11922;DHT22;6021;51.182;3.160;2022-09-09T04:29:57;14.70;99.90
11922;DHT22;6021;51.182;3.160;2022-09-09T04:32:26;14.70;99.90
11922;DHT22;6021;51.182;3.160;2022-09-09T04:34:54;14.80;99.90
11922;DHT22;6021;51.182;3.160;2022-09-09T04:37:23;14.90;99.90
11922;DHT22;6021;51.182;3.160;2022-09-09T04:39:52;15.00;99.90
11922;DHT22;6021;51.182;3.160;2022-09-09T04:42:20;14.90;99.90
11922;DHT22;6021;51.182;3.160;2022-09-09T04:44:49;14.90;99.90
11922;DHT22;6021;51.182;3.160;2022-09-09T04:47:18;14.80;99.90
11922;DHT22;6021;51.182;3.160;2022-09-09T04:49:46;14.80;99.90
11922;DHT22;6021;51.182;3.160;2022-09-09T04:54:45;14.80;99.90
11922;DHT22;6021;51.182;3.160;2022-09-09T04:57:14;15.00;99.90
11922;DHT22;6021;51.182;3.160;2022-09-09T04:59:42;15.00;99.90
11922;DHT22;6021;51.182;3.160;2022-09-09T05:02:11;14.90;99.90
11922;DHT22;6021;51.182;3.160;2022-09-09T05:04:40;14.90;99.90
11922;DHT22;6021;51.182;3.160;2022-09-09T05:07:08;14.80;99.90
11922;DHT22;6021;51.182;3.160;2022-09-09T05:09:37;14.90;99.90
11922;DHT22;6021;51.182;3.160;2022-09-09T05:12:06;14.80;99.90
11922;DHT22;6021;51.182;3.160;2022-09-09T05:14:35;14.80;99.90
11922;DHT22;6021;51.182;3.160;2022-09-09T05:17:04;14.80;99.90
11922;DHT22;6021;51.182;3.160;2022-09-09T05:19:33;14.90;99.90
11922;DHT22;6021;51.182;3.160;2022-09-09T05:22:01;14.80;99.90
11922;DHT22;6021;51.182;3.160;2022-09-09T05:24:30;15.00;99.90
11922;DHT22;6021;51.182;3.160;2022-09-09T05:27:02;14.90;99.90
11922;DHT22;6021;51.182;3.160;2022-09-09T05:29:30;14.80;99.90
11922;DHT22;6021;51.182;3.160;2022-09-09T05:32:00;14.70;99.90
11922;DHT22;6021;51.182;3.160;2022-09-09T05:34:28;14.70;99.90
11922;DHT22;6021;51.182;3.160;2022-09-09T05:36:56;14.80;99.90
11922;DHT22;6021;51.182;3.160;2022-09-09T05:39:26;14.70;99.90
11922;DHT22;6021;51.182;3.160;2022-09-09T05:41:55;14.70;99.90
11922;DHT22;6021;51.182;3.160;2022-09-09T05:44:23;14.70;99.90
11922;DHT22;6021;51.182;3.160;2022-09-09T05:46:53;14.80;99.90
11922;DHT22;6021;51.182;3.160;2022-09-09T05:51:52;14.80;99.90
11922;DHT22;6021;51.182;3.160;2022-09-09T05:54:21;14.90;99.90
11922;DHT22;6021;51.182;3.160;2022-09-09T05:56:49;14.90;99.90
11922;DHT22;6021;51.182;3.160;2022-09-09T05:59:18;14.80;99.90
11922;DHT22;6021;51.182;3.160;2022-09-09T06:01:46;14.70;99.90
11922;DHT22;6021;51.182;3.160;2022-09-09T06:04:15;14.90;99.90
11922;DHT22;6021;51.182;3.160;2022-09-09T06:06:43;14.80;99.90
11922;DHT22;6021;51.182;3.160;2022-09-09T06:09:11;14.90;99.90
11922;DHT22;6021;51.182;3.160;2022-09-09T06:11:41;14.80;99.90
11922;DHT22;6021;51.182;3.160;2022-09-09T06:14:10;14.90;99.90
11922;DHT22;6021;51.182;3.160;2022-09-09T06:16:38;14.80;99.90
11922;DHT22;6021;51.182;3.160;2022-09-09T06:19:08;14.80;99.90
11922;DHT22;6021;51.182;3.160;2022-09-09T06:21:37;14.90;99.90
11922;DHT22;6021;51.182;3.160;2022-09-09T06:24:06;15.00;99.90
11922;DHT22;6021;51.182;3.160;2022-09-09T06:26:39;15.40;99.90
11922;DHT22;6021;51.182;3.160;2022-09-09T06:31:39;15.10;99.90
11922;DHT22;6021;51.182;3.160;2022-09-09T06:34:09;15.10;99.90
11922;DHT22;6021;51.182;3.160;2022-09-09T06:36:38;15.10;99.90
11922;DHT22;6021;51.182;3.160;2022-09-09T06:39:07;15.10;99.90
11922;DHT22;6021;51.182;3.160;2022-09-09T06:41:37;15.20;99.90
11922;DHT22;6021;51.182;3.160;2022-09-09T06:44:06;15.00;99.90
11922;DHT22;6021;51.182;3.160;2022-09-09T06:46:34;15.00;99.90
11922;DHT22;6021;51.182;3.160;2022-09-09T06:49:02;15.00;99.90
11922;DHT22;6021;51.182;3.160;2022-09-09T06:51:36;14.90;99.90
11922;DHT22;6021;51.182;3.160;2022-09-09T06:54:06;14.90;99.90
11922;DHT22;6021;51.182;3.160;2022-09-09T06:56:37;14.90;99.90
11922;DHT22;6021;51.182;3.160;2022-09-09T06:59:09;15.00;99.90
11922;DHT22;6021;51.182;3.160;2022-09-09T07:01:41;15.00;99.90
11922;DHT22;6021;51.182;3.160;2022-09-09T07:04:11;14.90;99.90
11922;DHT22;6021;51.182;3.160;2022-09-09T07:06:43;14.90;99.90
11922;DHT22;6021;51.182;3.160;2022-09-09T07:09:14;14.90;99.90
11922;DHT22;6021;51.182;3.160;2022-09-09T07:11:46;15.00;99.90
11922;DHT22;6021;51.182;3.160;2022-09-09T07:14:15;14.90;99.90
11922;DHT22;6021;51.182;3.160;2022-09-09T07:16:45;15.00;99.90
11922;DHT22;6021;51.182;3.160;2022-09-09T07:19:14;15.10;99.90
11922;DHT22;6021;51.182;3.160;2022-09-09T07:21:43;15.10;99.90
11922;DHT22;6021;51.182;3.160;2022-09-09T07:24:13;15.00;99.90
11922;DHT22;6021;51.182;3.160;2022-09-09T07:26:43;15.10;99.90
11922;DHT22;6021;51.182;3.160;2022-09-09T07:29:11;15.00;99.90
11922;DHT22;6021;51.182;3.160;2022-09-09T07:31:42;15.00;99.90
11922;DHT22;6021;51.182;3.160;2022-09-09T07:34:10;15.00;99.90
11922;DHT22;6021;51.182;3.160;2022-09-09T07:36:40;15.00;99.90
11922;DHT22;6021;51.182;3.160;2022-09-09T07:39:11;15.10;99.90
11922;DHT22;6021;51.182;3.160;2022-09-09T07:41:42;15.10;99.90
11922;DHT22;6021;51.182;3.160;2022-09-09T07:44:18;15.10;99.90
11922;DHT22;6021;51.182;3.160;2022-09-09T07:46:42;15.00;99.90
11922;DHT22;6021;51.182;3.160;2022-09-09T07:49:12;15.00;99.90
11922;DHT22;6021;51.182;3.160;2022-09-09T07:51:45;15.00;99.90
11922;DHT22;6021;51.182;3.160;2022-09-09T07:54:18;15.00;99.90
11922;DHT22;6021;51.182;3.160;2022-09-09T07:56:51;15.10;99.90
11922;DHT22;6021;51.182;3.160;2022-09-09T08:01:55;15.10;99.90
11922;DHT22;6021;51.182;3.160;2022-09-09T08:04:25;15.20;99.90
11922;DHT22;6021;51.182;3.160;2022-09-09T08:09:28;15.30;99.90
11922;DHT22;6021;51.182;3.160;2022-09-09T08:11:57;15.20;99.90
11922;DHT22;6021;51.182;3.160;2022-09-09T08:14:28;15.20;99.90
11922;DHT22;6021;51.182;3.160;2022-09-09T08:16:57;15.20;99.90
11922;DHT22;6021;51.182;3.160;2022-09-09T08:19:26;15.30;99.90
11922;DHT22;6021;51.182;3.160;2022-09-09T08:21:57;15.30;99.90
11922;DHT22;6021;51.182;3.160;2022-09-09T08:24:25;15.20;99.90
11922;DHT22;6021;51.182;3.160;2022-09-09T08:26:54;15.30;99.90
11922;DHT22;6021;51.182;3.160;2022-09-09T08:29:23;15.40;99.90
11922;DHT22;6021;51.182;3.160;2022-09-09T08:31:54;15.40;99.90
11922;DHT22;6021;51.182;3.160;2022-09-09T08:34:25;15.50;99.90
11922;DHT22;6021;51.182;3.160;2022-09-09T08:36:54;15.50;99.90
11922;DHT22;6021;51.182;3.160;2022-09-09T08:39:23;15.60;99.90
11922;DHT22;6021;51.182;3.160;2022-09-09T08:44:47;15.80;99.90
11922;DHT22;6021;51.182;3.160;2022-09-09T08:58:12;16.30;99.90
11922;DHT22;6021;51.182;3.160;2022-09-09T09:09:02;16.40;99.90
11922;DHT22;6021;51.182;3.160;2022-09-09T09:11:39;16.40;99.90
11922;DHT22;6021;51.182;3.160;2022-09-09T09:14:23;16.40;99.90
11922;DHT22;6021;51.182;3.160;2022-09-09T09:17:00;16.40;99.90
11922;DHT22;6021;51.182;3.160;2022-09-09T09:19:35;16.50;99.90
11922;DHT22;6021;51.182;3.160;2022-09-09T09:22:36;16.50;99.90
11922;DHT22;6021;51.182;3.160;2022-09-09T09:30:24;16.80;99.90
11922;DHT22;6021;51.182;3.160;2022-09-09T09:35:23;16.90;99.90
11922;DHT22;6021;51.182;3.160;2022-09-09T09:37:51;16.90;99.90
11922;DHT22;6021;51.182;3.160;2022-09-09T09:40:22;16.90;99.90
11922;DHT22;6021;51.182;3.160;2022-09-09T09:43:03;16.80;99.90
11922;DHT22;6021;51.182;3.160;2022-09-09T09:45:40;16.80;99.90
11922;DHT22;6021;51.182;3.160;2022-09-09T09:48:08;16.80;99.90
11922;DHT22;6021;51.182;3.160;2022-09-09T09:50:48;16.70;99.90
11922;DHT22;6021;51.182;3.160;2022-09-09T09:53:25;16.80;99.90
11922;DHT22;6021;51.182;3.160;2022-09-09T09:56:08;16.90;99.90
11922;DHT22;6021;51.182;3.160;2022-09-09T09:58:37;16.90;99.90
11922;DHT22;6021;51.182;3.160;2022-09-09T10:01:01;16.90;99.90
11922;DHT22;6021;51.182;3.160;2022-09-09T10:03:31;16.90;99.90
11922;DHT22;6021;51.182;3.160;2022-09-09T10:06:01;16.90;99.90
11922;DHT22;6021;51.182;3.160;2022-09-09T10:08:43;16.80;99.90
11922;DHT22;6021;51.182;3.160;2022-09-09T10:17:08;16.80;99.90
11922;DHT22;6021;51.182;3.160;2022-09-09T10:19:36;16.70;99.90
11922;DHT22;6021;51.182;3.160;2022-09-09T10:22:27;16.70;99.90
11922;DHT22;6021;51.182;3.160;2022-09-09T10:28:49;16.70;99.90
11922;DHT22;6021;51.182;3.160;2022-09-09T10:33:09;16.60;99.90
11922;DHT22;6021;51.182;3.160;2022-09-09T10:38:19;16.40;99.90
11922;DHT22;6021;51.182;3.160;2022-09-09T10:55:19;16.40;99.90
11922;DHT22;6021;51.182;3.160;2022-09-09T10:57:50;16.40;99.90
11922;DHT22;6021;51.182;3.160;2022-09-09T11:00:24;16.10;99.90
11922;DHT22;6021;51.182;3.160;2022-09-09T11:03:25;16.00;99.90
11922;DHT22;6021;51.182;3.160;2022-09-09T11:06:02;16.00;99.90
11922;DHT22;6021;51.182;3.160;2022-09-09T11:08:26;16.10;99.90
11922;DHT22;6021;51.182;3.160;2022-09-09T11:16:33;16.10;99.90
11922;DHT22;6021;51.182;3.160;2022-09-09T11:19:24;16.10;99.90
11922;DHT22;6021;51.182;3.160;2022-09-09T11:21:53;16.10;99.90
11922;DHT22;6021;51.182;3.160;2022-09-09T11:38:58;16.60;99.90
11922;DHT22;6021;51.182;3.160;2022-09-09T11:52:10;16.30;99.90
11922;DHT22;6021;51.182;3.160;2022-09-09T11:59:50;16.30;99.90
11922;DHT22;6021;51.182;3.160;2022-09-09T12:12:54;16.50;99.90
11922;DHT22;6021;51.182;3.160;2022-09-09T12:15:27;16.60;99.90
11922;DHT22;6021;51.182;3.160;2022-09-09T12:17:58;16.70;99.90
11922;DHT22;6021;51.182;3.160;2022-09-09T12:20:33;16.70;99.90
11922;DHT22;6021;51.182;3.160;2022-09-09T12:23:22;17.00;99.90
11922;DHT22;6021;51.182;3.160;2022-09-09T12:26:01;17.10;99.90
11922;DHT22;6021;51.182;3.160;2022-09-09T12:33:42;17.20;99.90
11922;DHT22;6021;51.182;3.160;2022-09-09T12:39:17;17.20;99.90
11922;DHT22;6021;51.182;3.160;2022-09-09T12:41:50;17.20;99.90
11922;DHT22;6021;51.182;3.160;2022-09-09T12:44:14;17.10;99.90
11922;DHT22;6021;51.182;3.160;2022-09-09T12:46:45;17.10;99.90
11922;DHT22;6021;51.182;3.160;2022-09-09T12:49:26;17.00;99.90
11922;DHT22;6021;51.182;3.160;2022-09-09T12:51:55;16.90;99.90
11922;DHT22;6021;51.182;3.160;2022-09-09T12:54:24;16.80;99.90
11922;DHT22;6021;51.182;3.160;2022-09-09T12:56:53;16.70;99.90
11922;DHT22;6021;51.182;3.160;2022-09-09T12:59:26;16.60;99.90
11922;DHT22;6021;51.182;3.160;2022-09-09T13:01:58;16.60;99.90
11922;DHT22;6021;51.182;3.160;2022-09-09T13:04:27;16.50;99.90
11922;DHT22;6021;51.182;3.160;2022-09-09T13:07:11;16.50;99.90
11922;DHT22;6021;51.182;3.160;2022-09-09T13:09:37;16.50;99.90
11922;DHT22;6021;51.182;3.160;2022-09-09T13:12:07;16.60;99.90
11922;DHT22;6021;51.182;3.160;2022-09-09T13:14:37;16.70;99.90
11922;DHT22;6021;51.182;3.160;2022-09-09T13:17:06;16.70;99.90
11922;DHT22;6021;51.182;3.160;2022-09-09T13:19:37;16.80;99.90
11922;DHT22;6021;51.182;3.160;2022-09-09T13:22:14;16.80;99.90
11922;DHT22;6021;51.182;3.160;2022-09-09T13:24:45;16.90;99.90
11922;DHT22;6021;51.182;3.160;2022-09-09T13:27:32;17.00;99.90
11922;DHT22;6021;51.182;3.160;2022-09-09T13:30:23;17.10;99.90
11922;DHT22;6021;51.182;3.160;2022-09-09T13:35:57;17.00;99.90
11922;DHT22;6021;51.182;3.160;2022-09-09T13:38:28;17.10;99.90
11922;DHT22;6021;51.182;3.160;2022-09-09T13:41:04;17.20;99.90
11922;DHT22;6021;51.182;3.160;2022-09-09T13:43:44;17.00;99.90
11922;DHT22;6021;51.182;3.160;2022-09-09T13:46:39;17.00;99.90
11922;DHT22;6021;51.182;3.160;2022-09-09T13:51:41;16.90;99.90
11922;DHT22;6021;51.182;3.160;2022-09-09T13:54:15;17.00;99.90
11922;DHT22;6021;51.182;3.160;2022-09-09T13:56:45;17.00;99.90
11922;DHT22;6021;51.182;3.160;2022-09-09T13:59:17;17.00;99.90
11922;DHT22;6021;51.182;3.160;2022-09-09T14:01:48;17.00;99.90
11922;DHT22;6021;51.182;3.160;2022-09-09T14:04:20;17.00;99.90
11922;DHT22;6021;51.182;3.160;2022-09-09T14:06:49;17.10;99.90
11922;DHT22;6021;51.182;3.160;2022-09-09T14:09:18;17.10;99.90
11922;DHT22;6021;51.182;3.160;2022-09-09T14:11:48;17.10;99.90
11922;DHT22;6021;51.182;3.160;2022-09-09T14:14:16;17.20;99.90
11922;DHT22;6021;51.182;3.160;2022-09-09T14:16:45;17.10;99.90
11922;DHT22;6021;51.182;3.160;2022-09-09T14:19:13;17.10;99.90
11922;DHT22;6021;51.182;3.160;2022-09-09T14:21:41;17.00;99.90
11922;DHT22;6021;51.182;3.160;2022-09-09T14:24:10;17.10;99.90
11922;DHT22;6021;51.182;3.160;2022-09-09T14:26:39;17.20;99.90
11922;DHT22;6021;51.182;3.160;2022-09-09T14:29:08;17.10;99.90
11922;DHT22;6021;51.182;3.160;2022-09-09T14:31:36;17.30;99.90
11922;DHT22;6021;51.182;3.160;2022-09-09T14:34:04;17.20;99.90
11922;DHT22;6021;51.182;3.160;2022-09-09T14:36:33;17.40;99.90
11922;DHT22;6021;51.182;3.160;2022-09-09T14:39:01;17.30;99.90
11922;DHT22;6021;51.182;3.160;2022-09-09T14:41:30;17.30;99.90
11922;DHT22;6021;51.182;3.160;2022-09-09T14:43:58;17.50;99.90
11922;DHT22;6021;51.182;3.160;2022-09-09T14:46:27;17.40;99.90
11922;DHT22;6021;51.182;3.160;2022-09-09T14:48:55;17.20;99.90
11922;DHT22;6021;51.182;3.160;2022-09-09T14:51:25;17.20;99.90
11922;DHT22;6021;51.182;3.160;2022-09-09T14:53:56;17.10;99.90
11922;DHT22;6021;51.182;3.160;2022-09-09T14:56:28;17.20;99.90
11922;DHT22;6021;51.182;3.160;2022-09-09T14:58:58;17.20;99.90
11922;DHT22;6021;51.182;3.160;2022-09-09T15:01:29;17.30;99.90
11922;DHT22;6021;51.182;3.160;2022-09-09T15:04:00;17.40;99.90
11922;DHT22;6021;51.182;3.160;2022-09-09T15:06:31;17.40;99.90
11922;DHT22;6021;51.182;3.160;2022-09-09T15:09:00;17.30;99.90
11922;DHT22;6021;51.182;3.160;2022-09-09T15:11:32;17.30;99.90
11922;DHT22;6021;51.182;3.160;2022-09-09T15:14:02;17.30;99.90
11922;DHT22;6021;51.182;3.160;2022-09-09T15:16:31;17.40;99.90
11922;DHT22;6021;51.182;3.160;2022-09-09T15:19:00;17.30;99.90
11922;DHT22;6021;51.182;3.160;2022-09-09T15:21:31;17.30;99.90
11922;DHT22;6021;51.182;3.160;2022-09-09T15:24:00;17.30;99.90
11922;DHT22;6021;51.182;3.160;2022-09-09T15:26:28;17.30;99.90
11922;DHT22;6021;51.182;3.160;2022-09-09T15:28:57;17.30;99.90
11922;DHT22;6021;51.182;3.160;2022-09-09T15:31:29;17.30;99.90
11922;DHT22;6021;51.182;3.160;2022-09-09T15:33:59;17.40;99.90
11922;DHT22;6021;51.182;3.160;2022-09-09T15:36:42;17.40;99.90
11922;DHT22;6021;51.182;3.160;2022-09-09T15:39:13;17.40;99.90
11922;DHT22;6021;51.182;3.160;2022-09-09T15:41:44;17.40;99.90
11922;DHT22;6021;51.182;3.160;2022-09-09T15:44:14;17.50;99.90
11922;DHT22;6021;51.182;3.160;2022-09-09T15:46:51;17.50;99.90
11922;DHT22;6021;51.182;3.160;2022-09-09T15:49:23;17.70;99.90
11922;DHT22;6021;51.182;3.160;2022-09-09T15:51:56;17.70;99.90
11922;DHT22;6021;51.182;3.160;2022-09-09T15:54:26;17.70;99.90
11922;DHT22;6021;51.182;3.160;2022-09-09T15:56:57;17.70;99.90
11922;DHT22;6021;51.182;3.160;2022-09-09T15:59:27;17.70;99.90
11922;DHT22;6021;51.182;3.160;2022-09-09T16:01:56;17.80;99.90
11922;DHT22;6021;51.182;3.160;2022-09-09T16:04:26;17.80;99.90
11922;DHT22;6021;51.182;3.160;2022-09-09T16:07:03;17.80;99.90
11922;DHT22;6021;51.182;3.160;2022-09-09T16:09:33;17.80;99.90
11922;DHT22;6021;51.182;3.160;2022-09-09T16:12:03;17.80;99.90
11922;DHT22;6021;51.182;3.160;2022-09-09T16:14:36;17.70;99.90
11922;DHT22;6021;51.182;3.160;2022-09-09T16:17:06;17.70;99.90
11922;DHT22;6021;51.182;3.160;2022-09-09T16:19:34;17.60;99.90
11922;DHT22;6021;51.182;3.160;2022-09-09T16:22:04;17.70;99.90
11922;DHT22;6021;51.182;3.160;2022-09-09T16:24:33;17.60;99.90
11922;DHT22;6021;51.182;3.160;2022-09-09T16:27:02;17.60;99.90
11922;DHT22;6021;51.182;3.160;2022-09-09T16:29:30;17.60;99.90
11922;DHT22;6021;51.182;3.160;2022-09-09T16:31:59;17.50;99.90
11922;DHT22;6021;51.182;3.160;2022-09-09T16:34:27;17.40;99.90
11922;DHT22;6021;51.182;3.160;2022-09-09T16:36:55;17.40;99.90
11922;DHT22;6021;51.182;3.160;2022-09-09T16:39:25;17.50;99.90
11922;DHT22;6021;51.182;3.160;2022-09-09T16:41:53;17.50;99.90
11922;DHT22;6021;51.182;3.160;2022-09-09T16:46:58;17.40;99.90
11922;DHT22;6021;51.182;3.160;2022-09-09T16:49:27;17.40;99.90
11922;DHT22;6021;51.182;3.160;2022-09-09T16:51:58;17.50;99.90
11922;DHT22;6021;51.182;3.160;2022-09-09T16:56:59;17.70;99.90
11922;DHT22;6021;51.182;3.160;2022-09-09T16:59:27;17.70;99.90
11922;DHT22;6021;51.182;3.160;2022-09-09T17:01:56;17.70;99.90
11922;DHT22;6021;51.182;3.160;2022-09-09T17:04:27;17.70;99.90
11922;DHT22;6021;51.182;3.160;2022-09-09T17:06:56;17.60;99.90
11922;DHT22;6021;51.182;3.160;2022-09-09T17:09:26;17.50;99.90
11922;DHT22;6021;51.182;3.160;2022-09-09T17:11:58;17.40;99.90
11922;DHT22;6021;51.182;3.160;2022-09-09T17:14:27;17.40;99.90
11922;DHT22;6021;51.182;3.160;2022-09-09T17:16:56;17.50;99.90
11922;DHT22;6021;51.182;3.160;2022-09-09T17:19:24;17.40;99.90
11922;DHT22;6021;51.182;3.160;2022-09-09T17:21:54;17.50;99.90
11922;DHT22;6021;51.182;3.160;2022-09-09T17:24:24;17.30;99.90
11922;DHT22;6021;51.182;3.160;2022-09-09T17:26:53;17.20;99.90
11922;DHT22;6021;51.182;3.160;2022-09-09T17:29:22;17.10;99.90
11922;DHT22;6021;51.182;3.160;2022-09-09T17:31:50;17.20;99.90
11922;DHT22;6021;51.182;3.160;2022-09-09T17:34:19;17.10;99.90
11922;DHT22;6021;51.182;3.160;2022-09-09T17:36:47;17.10;99.90
11922;DHT22;6021;51.182;3.160;2022-09-09T17:39:16;17.00;99.90
11922;DHT22;6021;51.182;3.160;2022-09-09T17:41:44;17.00;99.90
11922;DHT22;6021;51.182;3.160;2022-09-09T17:44:12;17.00;99.90
11922;DHT22;6021;51.182;3.160;2022-09-09T17:46:43;17.00;99.90
11922;DHT22;6021;51.182;3.160;2022-09-09T17:49:22;16.90;99.90
11922;DHT22;6021;51.182;3.160;2022-09-09T17:51:50;16.90;99.90
11922;DHT22;6021;51.182;3.160;2022-09-09T17:54:20;16.80;99.90
11922;DHT22;6021;51.182;3.160;2022-09-09T17:56:48;16.90;99.90
11922;DHT22;6021;51.182;3.160;2022-09-09T17:59:18;16.90;99.90
11922;DHT22;6021;51.182;3.160;2022-09-09T18:01:47;16.90;99.90
11922;DHT22;6021;51.182;3.160;2022-09-09T18:04:17;16.90;99.90
11922;DHT22;6021;51.182;3.160;2022-09-09T18:06:50;17.00;99.90
11922;DHT22;6021;51.182;3.160;2022-09-09T18:09:21;16.80;99.90
11922;DHT22;6021;51.182;3.160;2022-09-09T18:11:53;16.80;99.90
11922;DHT22;6021;51.182;3.160;2022-09-09T18:14:28;16.90;99.90
11922;DHT22;6021;51.182;3.160;2022-09-09T18:16:58;17.00;99.90
11922;DHT22;6021;51.182;3.160;2022-09-09T18:19:29;17.00;99.90
11922;DHT22;6021;51.182;3.160;2022-09-09T18:21:59;17.00;99.90
11922;DHT22;6021;51.182;3.160;2022-09-09T18:24:27;16.80;99.90
11922;DHT22;6021;51.182;3.160;2022-09-09T18:26:56;16.90;99.90
11922;DHT22;6021;51.182;3.160;2022-09-09T18:29:25;16.80;99.90
11922;DHT22;6021;51.182;3.160;2022-09-09T18:31:54;16.80;99.90
11922;DHT22;6021;51.182;3.160;2022-09-09T18:34:23;16.80;99.90
11922;DHT22;6021;51.182;3.160;2022-09-09T18:36:53;16.70;99.90
11922;DHT22;6021;51.182;3.160;2022-09-09T18:39:24;16.70;99.90
11922;DHT22;6021;51.182;3.160;2022-09-09T18:41:56;16.70;99.90
11922;DHT22;6021;51.182;3.160;2022-09-09T18:44:29;16.60;99.90
11922;DHT22;6021;51.182;3.160;2022-09-09T18:46:58;16.70;99.90
11922;DHT22;6021;51.182;3.160;2022-09-09T18:49:27;16.80;99.90
11922;DHT22;6021;51.182;3.160;2022-09-09T18:51:56;16.80;99.90
11922;DHT22;6021;51.182;3.160;2022-09-09T18:54:28;16.80;99.90
11922;DHT22;6021;51.182;3.160;2022-09-09T18:56:57;16.50;99.90
11922;DHT22;6021;51.182;3.160;2022-09-09T18:59:27;16.60;99.90
11922;DHT22;6021;51.182;3.160;2022-09-09T19:01:56;16.70;99.90
11922;DHT22;6021;51.182;3.160;2022-09-09T19:04:25;16.60;99.90
11922;DHT22;6021;51.182;3.160;2022-09-09T19:06:53;16.70;99.90